createdAt,value
2023-05-08T00:01:38.848Z,8.18
2023-05-08T00:04:06.407Z,7.94
2023-05-08T00:06:34.917Z,7.91
2023-05-08T00:09:04.007Z,7.97
2023-05-08T00:11:33.038Z,7.74
2023-05-08T00:14:02.062Z,7.87
2023-05-08T00:16:32.355Z,7.98
2023-05-08T00:19:01.396Z,7.90
2023-05-08T00:21:31.404Z,7.99
2023-05-08T00:23:59.591Z,7.75
2023-05-08T00:26:27.780Z,7.86
2023-05-08T00:28:55.994Z,7.99
2023-05-08T00:31:24.320Z,8.05
2023-05-08T00:33:52.583Z,7.96
2023-05-08T00:36:20.751Z,7.99
2023-05-08T00:38:49.013Z,7.96
2023-05-08T00:41:16.376Z,8.32
2023-05-08T00:43:43.805Z,8.00
2023-05-08T00:46:13.663Z,7.86
2023-05-08T00:48:42.912Z,7.76
2023-05-08T00:51:11.706Z,7.50
2023-05-08T00:53:43.440Z,7.39
2023-05-08T00:56:15.217Z,7.30
2023-05-08T00:58:43.990Z,7.32
2023-05-08T01:01:12.790Z,7.38
2023-05-08T01:03:41.186Z,7.21
2023-05-08T01:06:08.940Z,7.29
2023-05-08T01:08:36.339Z,7.48
2023-05-08T01:11:14.045Z,7.27
2023-05-08T01:14:06.311Z,7.19
2023-05-08T01:16:45.398Z,7.12
2023-05-08T01:19:41.339Z,7.10
2023-05-08T01:22:59.409Z,7.02
2023-05-08T01:26:15.955Z,7.20
2023-05-08T01:29:44.027Z,7.00
2023-05-08T01:32:30.706Z,7.36
2023-05-08T01:35:10.777Z,7.36
2023-05-08T01:37:46.903Z,7.22
2023-05-08T01:40:41.373Z,6.90
2023-05-08T01:43:26.039Z,7.20
2023-05-08T01:45:56.883Z,6.90
2023-05-08T01:49:03.861Z,6.74
2023-05-08T01:51:42.247Z,6.81
2023-05-08T01:54:16.231Z,7.06
2023-05-08T01:56:47.257Z,6.61
2023-05-08T01:59:20.152Z,6.76
2023-05-08T02:01:51.207Z,6.84
2023-05-08T02:04:20.158Z,6.83
2023-05-08T02:06:48.617Z,7.08
2023-05-08T02:09:17.080Z,7.10
2023-05-08T02:11:47.577Z,6.97
2023-05-08T02:14:20.640Z,6.89
2023-05-08T02:16:52.078Z,6.92
2023-05-08T02:19:23.911Z,6.79
2023-05-08T02:21:53.400Z,7.04
2023-05-08T02:24:24.260Z,6.97
2023-05-08T02:26:54.813Z,7.10
2023-05-08T02:29:24.383Z,7.05
2023-05-08T02:31:54.786Z,7.08
2023-05-08T02:34:24.765Z,7.00
2023-05-08T02:36:54.888Z,7.26
2023-05-08T02:39:26.896Z,7.00
2023-05-08T02:41:54.232Z,6.98
2023-05-08T02:44:21.600Z,7.32
2023-05-08T02:47:20.393Z,7.32
2023-05-08T02:50:12.158Z,7.33
2023-05-08T02:52:49.878Z,7.21
2023-05-08T02:55:43.226Z,7.41
2023-05-08T02:58:58.209Z,7.22
2023-05-08T03:01:33.745Z,7.14
2023-05-08T03:04:08.711Z,7.38
2023-05-08T03:06:46.186Z,7.22
2023-05-08T03:09:19.970Z,7.14
2023-05-08T03:11:50.658Z,7.22
2023-05-08T03:14:23.190Z,7.18
2023-05-08T03:16:54.115Z,7.48
2023-05-08T03:19:34.752Z,7.59
2023-05-08T03:22:05.728Z,7.21
2023-05-08T03:24:37.421Z,7.22
2023-05-08T03:27:07.704Z,7.42
2023-05-08T03:29:36.797Z,7.41
2023-05-08T03:32:04.532Z,7.56
2023-05-08T03:34:34.045Z,7.62
2023-05-08T03:37:03.297Z,7.59
2023-05-08T03:39:31.452Z,7.67
2023-05-08T03:42:00.638Z,7.74
2023-05-08T03:44:31.270Z,7.90
2023-05-08T03:46:59.590Z,7.85
2023-05-08T03:49:27.278Z,7.56
2023-05-08T03:51:56.779Z,7.49
2023-05-08T03:54:25.750Z,7.76
2023-05-08T03:56:54.626Z,7.80
2023-05-08T04:00:10.079Z,7.80
2023-05-08T04:02:42.459Z,8.02
2023-05-08T04:05:38.051Z,8.27
2023-05-08T04:08:29.847Z,8.40
2023-05-08T04:11:36.892Z,8.48
2023-05-08T04:14:08.589Z,8.37
2023-05-08T04:16:41.141Z,8.50
2023-05-08T04:19:20.767Z,8.48
2023-05-08T04:21:51.315Z,8.15
2023-05-08T04:24:20.190Z,8.52
2023-05-08T04:26:49.550Z,8.70
2023-05-08T04:29:18.785Z,8.75
2023-05-08T04:31:48.392Z,8.88
2023-05-08T04:34:16.527Z,8.94
2023-05-08T04:36:45.436Z,9.01
2023-05-08T04:39:13.665Z,8.88
2023-05-08T04:41:41.911Z,8.77
2023-05-08T04:44:10.182Z,9.10
2023-05-08T04:46:37.510Z,9.28
2023-05-08T04:49:05.769Z,9.26
2023-05-08T04:51:33.143Z,9.27
2023-05-08T04:54:01.394Z,9.37
2023-05-08T04:56:28.647Z,9.53
2023-05-08T04:58:56.740Z,9.47
2023-05-08T05:01:24.070Z,9.66
2023-05-08T05:03:51.366Z,9.54
2023-05-08T05:06:19.481Z,9.79
2023-05-08T05:08:46.767Z,9.63
2023-05-08T05:11:14.078Z,9.92
2023-05-08T05:13:43.118Z,9.97
2023-05-08T05:16:10.501Z,10.06
2023-05-08T05:18:37.840Z,9.88
2023-05-08T05:21:05.103Z,10.14
2023-05-08T05:23:32.343Z,10.17
2023-05-08T05:25:59.611Z,10.28
2023-05-08T05:28:26.821Z,10.38
2023-05-08T05:30:57.587Z,10.57
2023-05-08T05:33:24.986Z,10.74
2023-05-08T05:35:52.976Z,10.54
2023-05-08T05:38:22.000Z,10.65
2023-05-08T05:40:49.770Z,10.75
2023-05-08T05:43:18.901Z,10.66
2023-05-08T05:45:46.120Z,10.94
2023-05-08T05:48:13.406Z,10.68
2023-05-08T05:50:40.661Z,11.03
2023-05-08T05:53:07.958Z,11.21
2023-05-08T05:55:36.019Z,11.46
2023-05-08T05:58:05.159Z,11.54
2023-05-08T06:00:34.172Z,11.86
2023-05-08T06:03:03.124Z,11.96
2023-05-08T06:05:30.620Z,12.09
2023-05-08T06:07:58.013Z,12.08
2023-05-08T06:10:25.678Z,12.32
2023-05-08T06:12:53.636Z,12.51
2023-05-08T06:17:54.543Z,13.01
2023-05-08T06:20:22.327Z,12.88
2023-05-08T06:22:50.151Z,13.02
2023-05-08T06:25:19.690Z,12.73
2023-05-08T06:27:48.687Z,12.95
2023-05-08T06:30:19.489Z,13.70
2023-05-08T06:32:46.781Z,13.76
2023-05-08T06:35:18.870Z,13.51
2023-05-08T06:37:49.642Z,13.91
2023-05-08T06:40:19.213Z,14.47
2023-05-08T06:42:46.509Z,14.80
2023-05-08T06:45:15.864Z,14.90
2023-05-08T06:47:43.411Z,15.20
2023-05-08T06:50:11.038Z,15.31
2023-05-08T06:52:39.292Z,15.39
2023-05-08T06:55:06.836Z,14.93
2023-05-08T06:57:37.527Z,15.43
2023-05-08T07:00:05.212Z,15.75
2023-05-08T07:02:32.742Z,15.91
2023-05-08T07:05:00.033Z,16.16
2023-05-08T07:07:30.794Z,16.54
2023-05-08T07:09:57.971Z,16.39
2023-05-08T07:12:25.239Z,16.14
2023-05-08T07:14:52.459Z,16.36
2023-05-08T07:17:19.700Z,16.43
2023-05-08T07:19:51.667Z,16.53
2023-05-08T07:22:19.101Z,16.66
2023-05-08T07:24:48.169Z,16.07
2023-05-08T07:27:15.419Z,16.17
2023-05-08T07:29:42.912Z,17.08
2023-05-08T07:32:10.540Z,16.41
2023-05-08T07:34:37.740Z,17.00
2023-05-08T07:37:05.030Z,16.92
2023-05-08T07:39:32.447Z,16.76
2023-05-08T07:41:59.644Z,16.91
2023-05-08T07:44:26.907Z,17.27
2023-05-08T07:46:54.145Z,16.97
2023-05-08T07:49:21.380Z,16.40
2023-05-08T07:51:49.301Z,16.59
2023-05-08T07:54:16.564Z,17.04
2023-05-08T07:56:43.793Z,17.39
2023-05-08T07:59:10.989Z,17.06
2023-05-08T08:01:38.305Z,17.44
2023-05-08T08:04:06.151Z,17.69
2023-05-08T08:06:35.333Z,16.97
2023-05-08T08:09:02.543Z,16.58
2023-05-08T08:11:30.194Z,18.09
2023-05-08T08:13:57.415Z,17.62
2023-05-08T08:16:24.744Z,18.34
2023-05-08T08:18:53.150Z,18.30
2023-05-08T08:21:20.504Z,18.40
2023-05-08T08:23:47.687Z,17.88
2023-05-08T08:26:14.843Z,17.98
2023-05-08T08:28:42.073Z,17.96
2023-05-08T08:31:09.310Z,17.72
2023-05-08T08:33:36.834Z,17.47
2023-05-08T08:36:04.234Z,16.86
2023-05-08T08:38:31.530Z,17.63
2023-05-08T08:40:58.737Z,17.45
2023-05-08T08:43:26.868Z,18.38
2023-05-08T08:45:54.927Z,18.78
2023-05-08T08:48:28.663Z,18.53
2023-05-08T08:51:03.712Z,17.80
2023-05-08T08:53:40.620Z,17.39
2023-05-08T08:56:09.310Z,17.95
2023-05-08T08:58:50.019Z,18.70
2023-05-08T09:01:19.687Z,18.27
2023-05-08T09:03:48.357Z,18.50
2023-05-08T09:06:17.424Z,18.05
2023-05-08T09:08:45.319Z,19.05
2023-05-08T09:11:12.510Z,19.05
2023-05-08T09:13:39.794Z,18.19
2023-05-08T09:16:07.547Z,18.72
2023-05-08T09:18:34.740Z,17.64
2023-05-08T09:21:02.870Z,18.75
2023-05-08T09:23:30.156Z,18.58
2023-05-08T09:25:57.463Z,18.60
2023-05-08T09:28:26.425Z,18.24
2023-05-08T09:30:59.258Z,17.41
2023-05-08T09:33:28.912Z,18.51
2023-05-08T09:35:57.835Z,19.43
2023-05-08T09:38:40.320Z,18.75
2023-05-08T09:41:16.474Z,18.00
2023-05-08T09:43:45.414Z,17.92
2023-05-08T09:46:27.238Z,18.28
2023-05-08T09:48:57.513Z,18.53
2023-05-08T09:51:26.771Z,18.75
2023-05-08T09:53:57.424Z,19.58
2023-05-08T09:56:39.570Z,19.51
2023-05-08T09:59:30.775Z,19.90
2023-05-08T10:01:59.022Z,19.13
2023-05-08T10:04:35.554Z,19.79
2023-05-08T10:07:04.839Z,19.80
2023-05-08T10:09:46.756Z,19.30
2023-05-08T10:12:18.000Z,19.43
2023-05-08T10:14:46.881Z,19.78
2023-05-08T10:17:23.668Z,20.07
2023-05-08T10:20:00.331Z,19.74
2023-05-08T10:22:29.552Z,19.41
2023-05-08T10:24:59.436Z,19.38
2023-05-08T10:28:01.893Z,19.34
2023-05-08T10:30:32.363Z,19.16
2023-05-08T10:33:08.361Z,19.61
2023-05-08T10:35:38.106Z,19.44
2023-05-08T10:38:09.653Z,19.87
2023-05-08T10:40:38.882Z,20.20
2023-05-08T10:43:08.097Z,20.10
2023-05-08T10:45:37.553Z,19.52
2023-05-08T10:48:16.054Z,19.70
2023-05-08T10:51:12.921Z,19.79
2023-05-08T10:53:59.302Z,20.00
2023-05-08T10:56:28.651Z,20.87
2023-05-08T10:58:58.693Z,19.86
2023-05-08T11:01:27.921Z,20.05
2023-05-08T11:03:56.618Z,20.20
2023-05-08T11:06:49.279Z,19.46
2023-05-08T11:09:28.889Z,20.09
2023-05-08T11:12:10.658Z,20.38
2023-05-08T11:14:43.206Z,20.39
2023-05-08T11:17:11.585Z,20.06
2023-05-08T11:19:58.477Z,19.85
2023-05-08T11:22:37.231Z,19.44
2023-05-08T11:25:10.908Z,20.14
2023-05-08T11:28:07.211Z,20.17
2023-05-08T11:30:37.890Z,19.87
2023-05-08T11:33:05.922Z,18.67
2023-05-08T11:35:47.253Z,17.98
2023-05-08T11:38:18.960Z,18.77
2023-05-08T11:41:06.156Z,19.51
2023-05-08T11:43:34.152Z,19.62
2023-05-08T11:46:15.770Z,19.64
2023-05-08T11:48:44.376Z,20.03
2023-05-08T11:51:13.850Z,20.47
2023-05-08T11:53:42.077Z,20.62
2023-05-08T11:56:10.258Z,20.52
2023-05-08T11:58:38.203Z,20.21
2023-05-08T12:01:06.191Z,19.79
2023-05-08T12:03:34.447Z,20.48
2023-05-08T12:06:02.544Z,20.26
2023-05-08T12:08:30.482Z,20.18
2023-05-08T12:10:58.725Z,20.42
2023-05-08T12:13:29.298Z,20.41
2023-05-08T12:16:00.408Z,20.76
2023-05-08T12:18:30.717Z,20.29
2023-05-08T12:21:01.007Z,20.34
2023-05-08T12:23:30.534Z,20.67
2023-05-08T12:26:02.296Z,20.28
2023-05-08T12:28:32.576Z,20.43
2023-05-08T12:31:01.663Z,20.68
2023-05-08T12:33:31.019Z,20.25
2023-05-08T12:35:59.817Z,20.18
2023-05-08T12:38:29.736Z,19.99
2023-05-08T12:40:57.662Z,20.54
2023-05-08T12:43:34.079Z,20.55
2023-05-08T12:46:05.855Z,20.38
2023-05-08T12:48:33.803Z,20.61
2023-05-08T12:51:04.177Z,20.75
2023-05-08T12:53:33.395Z,19.97
2023-05-08T12:56:04.435Z,20.48
2023-05-08T12:58:35.000Z,20.27
2023-05-08T13:01:14.877Z,20.07
2023-05-08T13:03:42.979Z,19.78
2023-05-08T13:06:22.026Z,20.25
2023-05-08T13:08:57.621Z,19.73
2023-05-08T13:11:33.489Z,20.26
2023-05-08T13:14:01.498Z,20.08
2023-05-08T13:16:29.573Z,20.57
2023-05-08T13:18:57.499Z,20.17
2023-05-08T13:21:27.659Z,20.21
2023-05-08T13:23:57.036Z,19.92
2023-05-08T13:26:25.878Z,19.74
2023-05-08T13:28:56.214Z,20.19
2023-05-08T13:31:24.910Z,20.00
2023-05-08T13:33:52.909Z,19.89
2023-05-08T13:36:21.150Z,19.43
2023-05-08T13:38:54.411Z,19.99
2023-05-08T13:41:22.332Z,19.53
2023-05-08T13:43:50.231Z,19.77
2023-05-08T13:46:18.188Z,19.93
2023-05-08T13:48:46.142Z,19.84
2023-05-08T13:51:14.040Z,19.90
2023-05-08T13:53:41.939Z,19.77
2023-05-08T13:56:09.811Z,20.23
2023-05-08T13:58:37.752Z,19.86
2023-05-08T14:01:22.014Z,20.33
2023-05-08T14:03:54.035Z,19.42
2023-05-08T14:06:22.038Z,19.83
2023-05-08T14:08:52.298Z,19.66
2023-05-08T14:11:22.559Z,19.67
2023-05-08T14:13:50.793Z,19.86
2023-05-08T14:16:18.873Z,19.78
2023-05-08T14:18:46.793Z,19.99
2023-05-08T14:21:14.701Z,20.07
2023-05-08T14:23:44.045Z,19.86
2023-05-08T14:26:11.953Z,19.53
2023-05-08T14:28:39.877Z,19.41
2023-05-08T14:31:07.911Z,19.34
2023-05-08T14:33:35.845Z,19.41
2023-05-08T14:36:03.926Z,19.30
2023-05-08T14:38:31.472Z,18.98
2023-05-08T14:40:58.825Z,18.82
2023-05-08T14:43:26.565Z,18.82
2023-05-08T14:45:53.818Z,18.67
2023-05-08T14:48:21.028Z,19.06
2023-05-08T14:50:48.229Z,18.77
2023-05-08T14:53:15.606Z,18.23
2023-05-08T14:55:43.152Z,18.55
2023-05-08T14:58:10.802Z,18.48
2023-05-08T15:00:38.000Z,18.84
2023-05-08T15:03:05.508Z,18.43
2023-05-08T15:05:33.186Z,18.58
2023-05-08T15:08:02.862Z,18.79
2023-05-08T15:10:32.035Z,18.47
2023-05-08T15:12:59.380Z,18.28
2023-05-08T15:15:26.767Z,18.05
2023-05-08T15:17:54.016Z,18.21
2023-05-08T15:20:21.668Z,17.71
2023-05-08T15:22:49.451Z,17.68
2023-05-08T15:25:16.927Z,17.91
2023-05-08T15:27:44.354Z,18.01
2023-05-08T15:30:12.302Z,17.67
2023-05-08T15:32:40.461Z,17.53
2023-05-08T15:35:08.093Z,17.57
2023-05-08T15:37:37.232Z,17.63
2023-05-08T15:40:04.841Z,17.66
2023-05-08T15:42:33.976Z,17.56
2023-05-08T15:45:02.313Z,17.42
2023-05-08T15:47:29.573Z,17.29
2023-05-08T15:49:58.629Z,17.40
2023-05-08T15:52:25.892Z,17.17
2023-05-08T15:54:53.134Z,16.73
2023-05-08T15:57:20.411Z,16.55
2023-05-08T15:59:47.721Z,17.02
2023-05-08T16:02:15.283Z,16.72
2023-05-08T16:04:42.545Z,16.35
2023-05-08T16:07:09.790Z,16.48
2023-05-08T16:09:37.095Z,16.42
2023-05-08T16:12:04.534Z,16.09
2023-05-08T16:14:31.779Z,15.97
2023-05-08T16:16:58.941Z,15.84
2023-05-08T16:19:29.021Z,15.84
2023-05-08T16:21:56.239Z,15.90
2023-05-08T16:24:23.596Z,15.81
2023-05-08T16:26:51.158Z,15.69
2023-05-08T16:29:18.480Z,15.66
2023-05-08T16:31:45.796Z,15.42
2023-05-08T16:34:13.274Z,15.41
2023-05-08T16:36:40.754Z,15.29
2023-05-08T16:39:08.599Z,15.21
2023-05-08T16:41:35.847Z,14.99
2023-05-08T16:44:04.841Z,14.79
2023-05-08T16:46:32.078Z,14.68
2023-05-08T16:48:59.294Z,14.53
2023-05-08T16:51:26.758Z,14.38
2023-05-08T16:53:55.457Z,14.17
2023-05-08T16:56:24.520Z,14.14
2023-05-08T16:58:51.744Z,14.01
2023-05-08T17:01:19.054Z,14.04
2023-05-08T17:03:49.897Z,13.98
2023-05-08T17:06:17.186Z,13.85
2023-05-08T17:08:44.464Z,13.62
2023-05-08T17:11:11.652Z,13.48
2023-05-08T17:13:38.801Z,13.46
2023-05-08T17:16:06.941Z,13.39
2023-05-08T17:18:34.224Z,13.32
2023-05-08T17:21:01.519Z,13.28
2023-05-08T17:23:28.764Z,13.14
2023-05-08T17:26:00.205Z,13.13
2023-05-08T17:28:27.467Z,13.10
2023-05-08T17:30:58.829Z,12.95
2023-05-08T17:33:26.193Z,12.86
2023-05-08T17:35:53.414Z,12.79
2023-05-08T17:38:21.077Z,12.69
2023-05-08T17:40:48.321Z,12.64
2023-05-08T17:43:17.395Z,12.64
2023-05-08T17:45:47.582Z,12.55
2023-05-08T17:48:14.803Z,12.39
2023-05-08T17:50:47.081Z,12.46
2023-05-08T17:53:14.417Z,12.19
2023-05-08T17:55:41.726Z,12.21
2023-05-08T17:58:09.250Z,12.08
2023-05-08T18:00:36.552Z,12.00
2023-05-08T18:03:04.676Z,11.91
2023-05-08T18:05:32.523Z,11.86
2023-05-08T18:08:01.676Z,11.79
2023-05-08T18:10:31.529Z,11.64
2023-05-08T18:12:59.822Z,11.51
2023-05-08T18:15:29.313Z,11.52
2023-05-08T18:17:58.707Z,11.36
2023-05-08T18:20:26.831Z,11.37
2023-05-08T18:22:56.071Z,11.34
2023-05-08T18:25:24.091Z,11.31
2023-05-08T18:27:53.201Z,11.25
2023-05-08T18:30:20.463Z,11.19
2023-05-08T18:32:50.915Z,10.95
2023-05-08T18:35:18.277Z,10.99
2023-05-08T18:37:45.533Z,11.06
2023-05-08T18:40:16.388Z,10.83
2023-05-08T18:42:47.271Z,10.72
2023-05-08T18:45:14.537Z,10.84
2023-05-08T18:47:41.986Z,10.84
2023-05-08T18:50:10.138Z,10.72
2023-05-08T18:52:37.342Z,10.69
2023-05-08T18:55:08.009Z,10.67
2023-05-08T18:57:35.298Z,10.47
2023-05-08T19:00:02.801Z,10.51
2023-05-08T19:02:34.449Z,10.44
2023-05-08T19:05:03.608Z,10.48
2023-05-08T19:07:32.723Z,10.33
2023-05-08T19:10:00.479Z,10.32
2023-05-08T19:12:27.747Z,10.27
2023-05-08T19:14:56.840Z,10.22
2023-05-08T19:17:25.912Z,10.10
2023-05-08T19:19:55.094Z,10.07
2023-05-08T19:22:25.828Z,10.04
2023-05-08T19:24:54.896Z,10.02
2023-05-08T19:27:22.558Z,9.91
2023-05-08T19:29:52.506Z,9.91
2023-05-08T19:32:19.707Z,9.80
2023-05-08T19:34:48.484Z,9.81
2023-05-08T19:37:15.667Z,9.77
2023-05-08T19:39:44.774Z,9.74
2023-05-08T19:42:14.064Z,9.70
2023-05-08T19:44:43.248Z,9.73
2023-05-08T19:47:10.470Z,9.76
2023-05-08T19:49:37.755Z,9.67
2023-05-08T19:52:05.435Z,9.66
2023-05-08T19:54:34.507Z,9.70
2023-05-08T19:57:05.250Z,9.91
2023-05-08T19:59:32.451Z,9.82
2023-05-08T20:01:59.709Z,9.81
2023-05-08T20:04:29.001Z,9.65
2023-05-08T20:06:56.279Z,9.64
2023-05-08T20:09:23.641Z,9.57
2023-05-08T20:11:50.923Z,9.50
2023-05-08T20:14:18.242Z,9.51
2023-05-08T20:16:48.205Z,9.45
2023-05-08T20:19:15.525Z,9.52
2023-05-08T20:21:42.789Z,9.35
2023-05-08T20:24:10.076Z,9.32
2023-05-08T20:26:37.402Z,9.35
2023-05-08T20:29:04.604Z,9.27
2023-05-08T20:31:32.377Z,9.20
2023-05-08T20:34:01.565Z,9.28
2023-05-08T20:36:31.496Z,9.28
2023-05-08T20:38:58.844Z,9.15
2023-05-08T20:41:27.927Z,9.21
2023-05-08T20:43:55.162Z,9.16
2023-05-08T20:46:22.571Z,9.13
2023-05-08T20:48:51.362Z,9.08
2023-05-08T20:51:18.583Z,9.09
2023-05-08T20:53:45.960Z,9.12
2023-05-08T20:56:15.709Z,9.07
2023-05-08T20:58:46.359Z,9.14
2023-05-08T21:01:13.653Z,9.10
2023-05-08T21:03:40.884Z,9.11
2023-05-08T21:06:08.290Z,9.04
2023-05-08T21:08:36.157Z,9.05
2023-05-08T21:11:03.768Z,9.07
2023-05-08T21:13:32.808Z,9.17
2023-05-08T21:16:01.933Z,8.96
2023-05-08T21:18:29.213Z,8.83
2023-05-08T21:20:57.265Z,8.88
2023-05-08T21:23:25.646Z,8.77
2023-05-08T21:25:53.315Z,8.83
2023-05-08T21:28:22.437Z,8.73
2023-05-08T21:30:49.721Z,8.88
2023-05-08T21:33:18.133Z,8.95
2023-05-08T21:35:45.534Z,9.06
2023-05-08T21:38:12.853Z,8.92
2023-05-08T21:40:41.977Z,8.56
2023-05-08T21:43:11.185Z,8.26
2023-05-08T21:45:38.526Z,8.48
2023-05-08T21:48:06.300Z,8.60
2023-05-08T21:50:34.347Z,8.63
2023-05-08T21:53:01.708Z,8.56
2023-05-08T21:55:30.993Z,8.48
2023-05-08T21:57:59.608Z,8.41
2023-05-08T22:00:29.505Z,8.07
2023-05-08T22:02:57.694Z,8.08
2023-05-08T22:05:25.938Z,8.18
2023-05-08T22:07:54.159Z,8.38
2023-05-08T22:10:22.335Z,8.26
2023-05-08T22:12:50.607Z,8.13
2023-05-08T22:15:29.116Z,8.16
2023-05-08T22:17:59.600Z,8.08
2023-05-08T22:20:29.820Z,8.13
2023-05-08T22:22:57.100Z,8.10
2023-05-08T22:25:26.950Z,8.06
2023-05-08T22:27:55.151Z,8.00
2023-05-08T22:30:23.251Z,7.82
2023-05-08T22:32:58.451Z,7.97
2023-05-08T22:35:27.854Z,7.97
2023-05-08T22:37:58.253Z,7.94
2023-05-08T22:40:28.527Z,7.88
2023-05-08T22:42:56.598Z,7.89
2023-05-08T22:45:23.978Z,7.93
2023-05-08T22:47:51.617Z,7.96
2023-05-08T22:50:21.353Z,7.94
2023-05-08T22:52:48.689Z,7.80
2023-05-08T22:55:16.747Z,7.90
2023-05-08T22:57:44.275Z,7.94
2023-05-08T23:00:13.918Z,7.97
2023-05-08T23:02:42.015Z,8.00
2023-05-08T23:05:11.243Z,7.84
2023-05-08T23:07:38.505Z,7.77
2023-05-08T23:10:08.245Z,7.79
2023-05-08T23:12:35.613Z,7.77
2023-05-08T23:15:04.814Z,7.65
2023-05-08T23:17:32.140Z,7.58
2023-05-08T23:20:03.080Z,7.86
2023-05-08T23:22:30.514Z,7.93
2023-05-08T23:24:57.736Z,7.67
2023-05-08T23:27:26.059Z,7.63
2023-05-08T23:29:55.222Z,7.60
2023-05-08T23:32:22.489Z,7.56
2023-05-08T23:34:49.773Z,7.67
2023-05-08T23:37:16.997Z,7.82
2023-05-08T23:39:44.268Z,7.70
2023-05-08T23:42:12.640Z,7.63
2023-05-08T23:44:41.694Z,7.24
2023-05-08T23:47:08.988Z,7.33
2023-05-08T23:49:38.101Z,7.54
2023-05-08T23:52:07.258Z,7.25
2023-05-08T23:54:34.479Z,7.38
2023-05-08T23:57:01.740Z,7.18
2023-05-08T23:59:29.024Z,7.34
